Time;durP1;ratioP1;P1;durP2;ratioP2;P2;SDS_P1;SDS_P2;PMS_P1;PMS_P2;Temp;Humidity;BMP_temperature;BMP_pressure;BME280_temperature;BME280_humidity;BME280_pressure;Samples;Min_cycle;Max_cycle;Signal;HPM_P1;HPM_P2
2022/09/02 00:00:45;;;;;;;5.03;2.10;;;12.60;99.90;;;;;;5043702;28;20350;-62
2022/09/02 00:03:13;;;;;;;7.32;2.30;;;12.60;99.90;;;;;;5038255;28;20025;-62
2022/09/02 00:05:38;;;;;;;7.45;2.60;;;12.60;99.90;;;;;;5040494;28;20048;-62
2022/09/02 00:08:05;;;;;;;7.07;2.33;;;12.60;99.90;;;;;;5042950;28;20381;-62
2022/09/02 00:10:33;;;;;;;6.85;2.20;;;12.50;99.90;;;;;;5034217;28;20033;-63
2022/09/02 00:12:59;;;;;;;5.68;2.10;;;12.40;99.90;;;;;;5038576;28;20032;-62
2022/09/02 00:15:25;;;;;;;7.97;2.20;;;12.40;99.90;;;;;;5038937;28;20512;-63
2022/09/02 00:17:51;;;;;;;5.55;2.15;;;12.30;99.90;;;;;;5040343;28;20484;-62
2022/09/02 00:20:17;;;;;;;6.05;2.08;;;12.20;99.90;;;;;;5040012;28;20041;-62
2022/09/02 00:22:43;;;;;;;5.22;2.05;;;12.10;99.90;;;;;;5039610;28;20582;-62
2022/09/02 00:25:09;;;;;;;5.53;2.25;;;12.00;99.90;;;;;;5037523;28;20119;-62
2022/09/02 00:27:35;;;;;;;5.65;2.15;;;11.90;99.90;;;;;;5039032;28;20372;-62
2022/09/02 00:30:01;;;;;;;6.55;2.15;;;11.80;99.90;;;;;;5036980;28;20074;-62
2022/09/02 00:32:27;;;;;;;6.13;2.30;;;11.70;99.90;;;;;;5035337;28;20025;-62
2022/09/02 00:34:54;;;;;;;8.38;2.50;;;11.70;99.90;;;;;;5037454;28;20511;-62
2022/09/02 00:37:20;;;;;;;6.05;2.08;;;11.60;99.90;;;;;;5036227;28;20022;-63
2022/09/02 00:39:46;;;;;;;4.90;2.10;;;11.60;99.90;;;;;;5037790;28;20031;-63
2022/09/02 00:42:11;;;;;;;5.50;2.35;;;11.70;99.90;;;;;;5041171;28;20731;-62
2022/09/02 00:44:37;;;;;;;6.03;2.25;;;11.80;99.90;;;;;;5040781;28;20427;-62
2022/09/02 00:47:03;;;;;;;6.00;2.20;;;11.80;99.90;;;;;;5039021;28;20020;-62
2022/09/02 00:49:36;;;;;;;8.00;2.20;;;11.80;99.90;;;;;;5031313;28;20485;-62
2022/09/02 00:52:08;;;;;;;5.60;2.20;;;11.80;99.90;;;;;;5039125;28;20071;-62
2022/09/02 00:54:38;;;;;;;6.47;2.15;;;11.70;99.90;;;;;;5036907;28;20029;-62
2022/09/02 00:57:11;;;;;;;6.20;2.47;;;11.70;99.90;;;;;;5040327;28;20017;-62
2022/09/02 00:59:49;;;;;;;5.68;2.50;;;11.60;99.90;;;;;;5034918;28;20827;-62
2022/09/02 01:02:15;;;;;;;5.45;2.15;;;11.60;99.90;;;;;;5037727;28;20108;-62
2022/09/02 01:04:42;;;;;;;5.55;2.40;;;11.60;99.90;;;;;;5036976;28;20025;-62
2022/09/02 01:07:08;;;;;;;6.43;2.70;;;11.50;99.90;;;;;;5038835;28;20067;-62
2022/09/02 01:09:35;;;;;;;6.82;2.38;;;11.50;99.90;;;;;;5036808;28;20025;-62
2022/09/02 01:12:02;;;;;;;6.45;2.65;;;11.60;99.90;;;;;;5039107;28;20030;-62
2022/09/02 01:14:28;;;;;;;7.40;2.58;;;11.60;99.90;;;;;;5040024;28;20053;-62
2022/09/02 01:17:01;;;;;;;7.38;2.40;;;11.50;99.90;;;;;;5035456;28;20072;-62
2022/09/02 01:19:39;;;;;;;5.70;2.42;;;11.30;99.90;;;;;;5037107;28;20029;-62
2022/09/02 01:22:15;;;;;;;6.95;2.47;;;11.20;99.90;;;;;;5037516;28;20029;-62
2022/09/02 01:24:41;;;;;;;6.53;2.28;;;11.20;99.90;;;;;;5034068;28;20497;-62
2022/09/02 01:27:07;;;;;;;6.82;2.60;;;11.10;99.90;;;;;;5038699;28;20021;-62
2022/09/02 01:29:32;;;;;;;6.85;2.20;;;11.10;99.90;;;;;;5035038;28;20377;-62
2022/09/02 01:31:58;;;;;;;6.93;2.65;;;11.00;99.90;;;;;;5035310;28;20480;-62
2022/09/02 01:34:24;;;;;;;6.43;2.50;;;11.00;99.90;;;;;;5035734;28;20394;-62
2022/09/02 01:36:50;;;;;;;9.15;2.70;;;11.00;99.90;;;;;;5034861;28;21543;-62
2022/09/02 01:39:16;;;;;;;16.65;2.90;;;10.90;99.90;;;;;;5034458;28;20053;-62
2022/09/02 01:41:42;;;;;;;7.53;2.90;;;10.80;99.90;;;;;;5033691;28;20448;-62
2022/09/02 01:44:09;;;;;;;7.05;2.80;;;10.90;99.90;;;;;;5039899;28;20162;-62
2022/09/02 01:46:35;;;;;;;7.70;2.67;;;11.00;99.90;;;;;;5035964;28;20029;-62
2022/09/02 01:49:00;;;;;;;7.15;2.65;;;11.00;99.90;;;;;;5034633;28;20083;-62
2022/09/02 01:51:26;;;;;;;7.18;2.67;;;11.00;99.90;;;;;;5032868;28;20073;-62
2022/09/02 01:53:52;;;;;;;6.32;2.83;;;10.90;99.90;;;;;;5039507;28;20021;-62
2022/09/02 01:56:17;;;;;;;9.98;2.97;;;10.90;99.90;;;;;;5033768;28;20039;-62
2022/09/02 01:58:43;;;;;;;7.03;3.00;;;10.80;99.90;;;;;;5040201;28;20423;-62
2022/09/02 02:01:10;;;;;;;7.82;3.05;;;10.90;99.90;;;;;;5038235;28;20025;-62
2022/09/02 02:03:37;;;;;;;7.45;2.90;;;10.90;99.90;;;;;;5034819;28;20564;-62
2022/09/02 02:06:11;;;;;;;7.47;3.25;;;10.90;99.90;;;;;;5040435;28;20017;-62
2022/09/02 02:08:37;;;;;;;10.80;3.13;;;10.90;99.90;;;;;;5041313;28;20041;-62
2022/09/02 02:11:04;;;;;;;11.38;3.20;;;10.80;99.90;;;;;;5032979;28;20025;-62
2022/09/02 02:13:30;;;;;;;7.25;2.95;;;10.70;99.90;;;;;;5035088;28;20037;-62
2022/09/02 02:15:55;;;;;;;9.13;2.80;;;10.70;99.90;;;;;;5036932;28;20022;-62
2022/09/02 02:18:21;;;;;;;7.75;2.90;;;10.80;99.90;;;;;;5033311;28;20021;-62
2022/09/02 02:20:47;;;;;;;7.80;2.80;;;10.80;99.90;;;;;;5038220;28;20061;-62
2022/09/02 02:23:13;;;;;;;7.35;2.30;;;10.90;99.90;;;;;;5037116;28;20018;-62
2022/09/02 02:25:39;;;;;;;6.88;2.65;;;11.00;99.90;;;;;;5036294;28;20517;-62
2022/09/02 02:28:04;;;;;;;8.05;2.63;;;11.20;99.90;;;;;;5037572;28;20350;-62
2022/09/02 02:30:30;;;;;;;7.70;2.95;;;11.20;99.90;;;;;;5035930;28;20021;-62
2022/09/02 02:32:56;;;;;;;7.47;2.50;;;11.20;99.90;;;;;;5038583;28;20044;-62
2022/09/02 02:35:22;;;;;;;6.95;2.95;;;11.20;99.90;;;;;;5041058;28;20076;-63
2022/09/02 02:37:49;;;;;;;7.57;2.72;;;11.20;99.90;;;;;;5034581;28;20043;-62
2022/09/02 02:40:17;;;;;;;6.95;2.78;;;11.10;99.90;;;;;;5047407;28;20592;-62
2022/09/02 02:42:43;;;;;;;9.00;2.58;;;11.10;99.90;;;;;;5042569;28;20032;-62
2022/09/02 02:45:11;;;;;;;7.80;2.65;;;10.90;99.90;;;;;;5046760;28;20029;-62
2022/09/02 02:47:38;;;;;;;7.80;2.50;;;10.80;99.90;;;;;;5040197;28;20029;-61
2022/09/02 02:50:06;;;;;;;7.65;2.67;;;10.70;99.90;;;;;;5045660;28;20033;-62
2022/09/02 02:52:32;;;;;;;7.55;2.80;;;10.60;99.90;;;;;;5043580;28;20104;-62
2022/09/02 02:54:58;;;;;;;5.95;2.40;;;10.50;99.90;;;;;;5040399;28;20104;-62
2022/09/02 02:57:23;;;;;;;5.78;2.53;;;10.40;99.90;;;;;;5040350;28;20064;-62
2022/09/02 02:59:49;;;;;;;6.95;2.70;;;10.30;99.90;;;;;;5039035;28;20028;-62
2022/09/02 03:02:16;;;;;;;6.57;2.47;;;10.20;99.90;;;;;;5041383;28;20048;-62
2022/09/02 03:04:41;;;;;;;6.60;2.72;;;10.20;99.90;;;;;;5040046;28;20695;-62
2022/09/02 03:07:08;;;;;;;7.07;2.38;;;10.30;99.90;;;;;;5043054;28;20022;-62
2022/09/02 03:09:34;;;;;;;7.57;2.70;;;10.30;99.90;;;;;;5048396;28;20682;-62
2022/09/02 03:12:00;;;;;;;8.48;2.75;;;10.30;99.90;;;;;;5038273;28;20025;-62
2022/09/02 03:14:25;;;;;;;7.78;2.55;;;10.30;99.90;;;;;;5041840;28;20092;-63
2022/09/02 03:16:51;;;;;;;8.23;2.50;;;10.20;99.90;;;;;;5038958;28;20675;-62
2022/09/02 03:19:17;;;;;;;7.43;2.67;;;10.20;99.90;;;;;;5040530;28;20050;-62
2022/09/02 03:21:42;;;;;;;8.57;2.80;;;10.10;99.90;;;;;;5038480;28;20040;-62
2022/09/02 03:24:10;;;;;;;8.23;2.63;;;10.10;99.90;;;;;;5040794;28;20021;-62
2022/09/02 03:26:36;;;;;;;9.30;2.80;;;10.00;99.90;;;;;;5037811;28;20389;-62
2022/09/02 03:29:03;;;;;;;5.38;2.20;;;10.00;99.90;;;;;;5041104;28;20497;-62
2022/09/02 03:31:29;;;;;;;6.43;2.50;;;10.00;99.90;;;;;;5037058;28;20044;-62
2022/09/02 03:33:55;;;;;;;7.53;2.50;;;10.00;99.90;;;;;;5037901;28;20064;-62
2022/09/02 03:36:27;;;;;;;8.10;2.75;;;10.10;99.90;;;;;;5045827;28;20032;-62
2022/09/02 03:38:53;;;;;;;5.75;2.35;;;10.20;99.90;;;;;;5040286;28;20024;-62
2022/09/02 03:41:19;;;;;;;5.57;2.00;;;10.20;99.90;;;;;;5036784;28;20634;-62
2022/09/02 03:43:45;;;;;;;10.70;2.25;;;10.40;99.90;;;;;;5042464;28;20096;-62
2022/09/02 03:46:12;;;;;;;6.97;2.00;;;10.60;99.90;;;;;;5040497;28;20071;-62
2022/09/02 03:48:38;;;;;;;6.55;2.30;;;10.70;99.90;;;;;;5044760;28;20489;-62
2022/09/02 03:51:04;;;;;;;4.90;2.08;;;10.90;99.90;;;;;;5038245;28;20022;-61
2022/09/02 03:53:31;;;;;;;5.43;2.08;;;11.00;99.90;;;;;;5035808;28;20472;-62
2022/09/02 03:55:58;;;;;;;5.90;2.10;;;11.10;99.90;;;;;;5037058;28;20496;-62
2022/09/02 03:58:23;;;;;;;7.07;2.00;;;11.20;99.90;;;;;;5039090;28;20113;-62
2022/09/02 04:00:51;;;;;;;7.05;2.38;;;11.30;99.90;;;;;;5041548;28;20100;-62
2022/09/02 04:03:17;;;;;;;5.45;1.95;;;11.30;99.90;;;;;;5037625;28;20021;-62
2022/09/02 04:05:46;;;;;;;5.60;2.10;;;11.30;99.90;;;;;;5036783;28;20022;-62
2022/09/02 04:08:12;;;;;;;5.07;2.10;;;11.20;99.90;;;;;;5040924;28;20025;-62
2022/09/02 04:10:38;;;;;;;5.10;1.98;;;11.20;99.90;;;;;;5038047;28;20278;-62
2022/09/02 04:13:03;;;;;;;6.63;2.00;;;11.30;99.90;;;;;;5040969;28;20071;-62
2022/09/02 04:15:29;;;;;;;5.93;2.10;;;11.40;99.90;;;;;;5040165;28;20040;-62
2022/09/02 04:21:18;;;;;;;5.25;2.10;;;11.40;99.90;;;;;;5036597;28;20403;-62
2022/09/02 04:23:44;;;;;;;5.60;2.20;;;11.50;99.90;;;;;;5034504;28;20105;-62
2022/09/02 04:26:12;;;;;;;7.80;2.20;;;11.40;99.90;;;;;;5042043;28;20063;-62
2022/09/02 04:28:39;;;;;;;5.88;2.03;;;11.30;99.90;;;;;;5036368;28;20028;-62
2022/09/02 04:31:06;;;;;;;7.07;2.58;;;11.20;99.90;;;;;;5038915;28;20040;-62
2022/09/02 04:33:34;;;;;;;5.50;2.30;;;11.20;99.90;;;;;;5032233;28;20025;-62
2022/09/02 04:36:07;;;;;;;6.57;2.53;;;11.10;99.90;;;;;;5041006;28;20027;-62
2022/09/02 04:38:33;;;;;;;7.25;2.10;;;11.10;99.90;;;;;;5035944;28;20025;-62
2022/09/02 04:40:58;;;;;;;6.07;2.20;;;11.00;99.90;;;;;;5036195;28;20017;-62
2022/09/02 04:43:24;;;;;;;6.03;2.20;;;11.00;99.90;;;;;;5045293;28;20040;-62
2022/09/02 04:45:50;;;;;;;6.78;2.30;;;11.00;99.90;;;;;;5037450;28;20028;-62
2022/09/02 04:48:17;;;;;;;5.82;2.20;;;11.10;99.90;;;;;;5036217;28;20022;-62
2022/09/02 04:50:43;;;;;;;7.20;2.17;;;11.10;99.90;;;;;;5033175;28;20082;-62
2022/09/02 04:53:09;;;;;;;7.68;2.55;;;11.30;99.90;;;;;;5035828;28;20033;-62
2022/09/02 04:55:38;;;;;;;5.50;2.10;;;11.30;99.90;;;;;;5037123;28;20029;-62
2022/09/02 04:58:04;;;;;;;6.33;2.67;;;11.30;99.90;;;;;;5037323;28;20167;-62
2022/09/02 05:00:30;;;;;;;6.10;2.17;;;11.40;99.90;;;;;;5037865;28;20029;-62
2022/09/02 05:02:56;;;;;;;6.00;2.10;;;11.60;99.90;;;;;;5040774;28;20360;-63
2022/09/02 05:05:21;;;;;;;5.25;2.40;;;11.70;99.90;;;;;;5039753;28;20021;-62
2022/09/02 05:07:47;;;;;;;5.68;2.20;;;11.80;99.90;;;;;;5039293;28;20076;-62
2022/09/02 05:10:14;;;;;;;5.90;2.25;;;11.80;99.90;;;;;;5036997;28;20021;-62
2022/09/02 05:12:40;;;;;;;9.52;3.08;;;12.00;99.90;;;;;;5038261;28;20018;-62
2022/09/02 05:15:08;;;;;;;6.70;2.10;;;12.10;99.90;;;;;;5034583;28;20033;-62
2022/09/02 05:17:35;;;;;;;6.18;2.40;;;12.20;99.90;;;;;;5027509;28;20032;-62
2022/09/02 05:20:06;;;;;;;5.55;2.10;;;12.40;99.90;;;;;;5035773;28;20049;-62
2022/09/02 05:22:32;;;;;;;5.78;2.20;;;12.50;99.90;;;;;;5035698;28;20029;-61
2022/09/02 05:24:58;;;;;;;5.50;2.00;;;12.60;99.90;;;;;;5034534;28;20018;-62
2022/09/02 05:27:24;;;;;;;6.18;2.17;;;12.80;99.90;;;;;;5036316;28;20044;-62
2022/09/02 05:29:54;;;;;;;9.18;2.10;;;12.80;99.90;;;;;;5036005;28;20040;-62
2022/09/02 05:32:21;;;;;;;8.45;2.38;;;12.90;99.90;;;;;;5030729;28;20403;-62
2022/09/02 05:34:48;;;;;;;7.55;2.17;;;13.00;99.90;;;;;;5041888;28;20025;-62
2022/09/02 05:37:15;;;;;;;6.50;1.92;;;13.10;99.90;;;;;;5034983;28;20495;-62
2022/09/02 05:39:41;;;;;;;10.18;2.15;;;13.20;99.90;;;;;;5032795;28;20024;-62
2022/09/02 05:42:07;;;;;;;7.55;2.20;;;13.30;99.90;;;;;;5033854;28;20237;-62
2022/09/02 05:44:34;;;;;;;6.15;2.20;;;13.40;99.90;;;;;;5040706;28;20170;-63
2022/09/02 05:47:00;;;;;;;7.28;2.30;;;13.50;99.90;;;;;;5032138;28;20191;-62
2022/09/02 05:49:26;;;;;;;6.03;2.13;;;13.50;99.90;;;;;;5036535;28;20524;-62
2022/09/02 05:51:54;;;;;;;6.90;2.42;;;13.60;99.90;;;;;;5034779;28;20528;-62
2022/09/02 05:54:36;;;;;;;10.00;2.25;;;13.70;99.90;;;;;;5039418;28;20043;-63
2022/09/02 05:57:11;;;;;;;9.05;2.40;;;13.80;99.90;;;;;;5040071;28;20159;-62
2022/09/02 05:59:38;;;;;;;7.15;2.28;;;13.80;99.90;;;;;;5032711;28;20022;-62
2022/09/02 06:02:05;;;;;;;8.88;2.20;;;13.90;99.90;;;;;;5035774;28;20431;-63
2022/09/02 06:04:31;;;;;;;6.50;2.30;;;14.00;99.90;;;;;;5034281;28;20424;-62
2022/09/02 06:06:57;;;;;;;8.18;2.40;;;14.10;99.90;;;;;;5028820;28;20021;-62
2022/09/02 06:09:23;;;;;;;7.10;2.20;;;14.20;99.90;;;;;;5039085;28;20116;-64
2022/09/02 06:11:50;;;;;;;8.55;2.20;;;14.30;99.90;;;;;;5035044;28;20072;-63
2022/09/02 06:14:21;;;;;;;6.93;2.30;;;14.50;99.90;;;;;;5036204;28;20052;-63
2022/09/02 06:16:49;;;;;;;9.35;2.50;;;14.50;99.90;;;;;;5035456;28;20518;-63
2022/09/02 06:19:15;;;;;;;13.20;2.45;;;14.70;99.90;;;;;;5037455;28;20017;-63
2022/09/02 06:21:42;;;;;;;8.40;2.50;;;14.70;99.90;;;;;;5045840;28;20071;-63
2022/09/02 06:24:10;;;;;;;8.63;2.25;;;14.70;99.90;;;;;;5036418;28;20029;-64
2022/09/02 06:26:39;;;;;;;8.02;2.38;;;14.90;99.90;;;;;;5032950;28;20063;-64
2022/09/02 06:29:06;;;;;;;9.38;2.15;;;15.10;99.90;;;;;;5034854;28;20460;-64
2022/09/02 06:31:32;;;;;;;7.43;2.42;;;15.40;99.90;;;;;;5040966;28;20154;-64
2022/09/02 06:33:59;;;;;;;8.30;2.33;;;15.70;99.90;;;;;;5037607;28;20025;-64
2022/09/02 06:36:27;;;;;;;6.68;2.10;;;15.80;99.90;;;;;;5040243;28;20440;-64
2022/09/02 06:38:55;;;;;;;8.77;2.40;;;15.80;99.90;;;;;;5033323;28;20471;-64
2022/09/02 06:41:27;;;;;;;9.95;2.20;;;15.90;99.90;;;;;;5026427;28;20409;-64
2022/09/02 06:43:59;;;;;;;7.57;2.58;;;16.00;99.90;;;;;;5025976;28;20282;-64
2022/09/02 06:46:29;;;;;;;10.55;2.17;;;16.10;99.90;;;;;;5036694;28;20111;-64
2022/09/02 06:48:55;;;;;;;7.05;2.13;;;16.10;99.90;;;;;;5038254;28;20025;-64
2022/09/02 06:51:28;;;;;;;9.52;2.35;;;16.20;99.90;;;;;;5027618;28;20044;-64
2022/09/02 06:53:54;;;;;;;6.88;2.22;;;16.40;99.90;;;;;;5029993;28;20632;-64
2022/09/02 06:56:20;;;;;;;10.20;2.47;;;16.40;99.90;;;;;;5035872;28;20218;-64
2022/09/02 06:58:46;;;;;;;11.77;2.30;;;16.40;99.90;;;;;;5039952;28;20037;-64
2022/09/02 07:01:20;;;;;;;10.30;1.90;;;16.40;99.90;;;;;;5034684;28;20029;-64
2022/09/02 07:06:35;;;;;;;6.47;1.88;;;16.20;99.90;;;;;;5039819;28;20210;-64
2022/09/02 07:09:01;;;;;;;8.52;2.15;;;16.20;99.90;;;;;;5039180;28;20021;-64
2022/09/02 07:11:26;;;;;;;8.43;2.15;;;16.30;99.90;;;;;;5029114;28;20060;-64
2022/09/02 07:13:52;;;;;;;6.30;2.38;;;16.30;99.90;;;;;;5030967;28;20026;-64
2022/09/02 07:16:18;;;;;;;7.65;2.08;;;16.50;99.90;;;;;;5030297;28;20064;-64
2022/09/02 07:18:44;;;;;;;11.10;2.22;;;16.60;99.90;;;;;;5039758;28;20104;-64
2022/09/02 07:21:11;;;;;;;10.13;2.10;;;16.70;99.90;;;;;;5035637;28;20052;-64
2022/09/02 07:23:37;;;;;;;8.65;2.15;;;17.00;99.90;;;;;;5038240;28;20029;-64
2022/09/02 07:26:03;;;;;;;6.78;2.10;;;17.20;99.90;;;;;;5037538;28;20063;-64
2022/09/02 07:28:29;;;;;;;6.38;2.22;;;17.40;99.90;;;;;;5059615;28;20052;-64
2022/09/02 07:30:55;;;;;;;9.55;2.55;;;17.60;99.90;;;;;;5033442;28;20118;-64
2022/09/02 07:33:21;;;;;;;11.25;2.22;;;18.00;99.90;;;;;;5034677;28;20102;-64
2022/09/02 07:35:49;;;;;;;6.30;2.17;;;18.20;99.90;;;;;;5032178;28;20071;-64
2022/09/02 07:38:14;;;;;;;9.23;2.40;;;18.50;99.90;;;;;;5041926;28;20040;-64
2022/09/02 07:40:41;;;;;;;11.07;2.38;;;18.60;99.90;;;;;;5041697;28;20406;-64
2022/09/02 07:43:09;;;;;;;9.82;2.20;;;18.80;99.90;;;;;;5041148;28;20113;-64
2022/09/02 07:45:36;;;;;;;10.27;2.10;;;19.00;99.90;;;;;;5035345;28;20022;-64
2022/09/02 07:48:05;;;;;;;13.82;2.58;;;19.20;99.90;;;;;;5034436;28;20021;-64
2022/09/02 07:50:33;;;;;;;9.27;2.40;;;19.40;99.90;;;;;;5035653;28;20112;-65
2022/09/02 07:53:05;;;;;;;6.68;2.10;;;19.70;99.90;;;;;;5033497;28;20121;-65
2022/09/02 07:55:31;;;;;;;6.82;2.22;;;19.80;99.90;;;;;;5043965;28;20029;-64
2022/09/02 07:57:57;;;;;;;11.93;2.45;;;19.90;99.90;;;;;;5031730;28;20511;-64
2022/09/02 08:00:26;;;;;;;6.80;2.00;;;20.10;99.90;;;;;;5039939;28;20084;-64
2022/09/02 08:02:52;;;;;;;9.95;2.25;;;20.30;99.90;;;;;;5031794;28;20053;-64
2022/09/02 08:05:18;;;;;;;10.43;2.42;;;20.40;99.90;;;;;;5041181;28;20052;-64
2022/09/02 08:07:44;;;;;;;11.38;2.20;;;20.30;99.90;;;;;;5036498;28;20489;-64
2022/09/02 08:10:11;;;;;;;8.60;2.92;;;20.30;99.90;;;;;;5035009;28;20053;-64
2022/09/02 08:12:39;;;;;;;11.00;2.95;;;20.20;99.90;;;;;;5031795;28;20028;-63
2022/09/02 08:15:06;;;;;;;9.63;2.33;;;20.20;99.90;;;;;;5040245;28;20400;-64
2022/09/02 08:17:31;;;;;;;8.48;2.20;;;20.20;99.90;;;;;;5031519;28;20022;-64
2022/09/02 08:19:57;;;;;;;8.00;2.47;;;20.40;99.90;;;;;;5030644;28;20546;-64
2022/09/02 08:22:24;;;;;;;9.23;2.30;;;20.50;99.90;;;;;;5029336;28;20124;-64
2022/09/02 08:24:50;;;;;;;9.45;2.35;;;20.70;99.60;;;;;;5028166;28;20116;-64
2022/09/02 08:27:16;;;;;;;6.75;1.98;;;20.50;99.20;;;;;;5030868;28;20104;-64
2022/09/02 08:29:42;;;;;;;9.32;2.05;;;20.40;99.80;;;;;;5033462;28;20104;-64
2022/09/02 08:32:08;;;;;;;8.30;2.08;;;20.50;99.90;;;;;;5029262;28;20024;-66
2022/09/02 08:34:33;;;;;;;7.88;2.40;;;20.80;99.70;;;;;;5029060;28;20041;-64
2022/09/02 08:36:59;;;;;;;9.63;2.20;;;20.90;98.70;;;;;;5034018;28;20542;-64
2022/09/02 08:39:25;;;;;;;8.68;2.47;;;20.90;99.20;;;;;;5031460;28;20480;-64
2022/09/02 08:42:11;;;;;;;11.43;2.50;;;20.90;99.20;;;;;;5033835;28;20025;-64
2022/09/02 08:44:39;;;;;;;15.02;2.30;;;20.80;98.90;;;;;;5039419;28;20025;-64
2022/09/02 08:47:14;;;;;;;8.70;2.25;;;21.00;98.70;;;;;;5035154;28;20026;-64
2022/09/02 08:49:45;;;;;;;8.07;2.10;;;21.00;98.80;;;;;;5032676;28;20060;-64
2022/09/02 08:52:18;;;;;;;10.65;2.22;;;21.40;98.50;;;;;;5027705;28;20334;-64
2022/09/02 08:54:51;;;;;;;6.30;1.80;;;21.60;97.90;;;;;;5027647;28;20040;-64
2022/09/02 08:57:17;;;;;;;9.88;2.40;;;22.10;96.70;;;;;;5031189;28;20412;-64
2022/09/02 08:59:44;;;;;;;9.52;2.22;;;22.30;96.50;;;;;;5034835;28;21379;-64
2022/09/02 09:02:29;;;;;;;11.23;2.30;;;22.50;96.10;;;;;;5032310;28;20579;-64
2022/09/02 09:05:24;;;;;;;13.00;2.00;;;23.00;95.90;;;;;;5037354;28;20435;-64
2022/09/02 09:08:13;;;;;;;14.43;2.20;;;23.70;94.20;;;;;;5028005;28;20437;-64
2022/09/02 09:10:55;;;;;;;5.72;1.83;;;23.90;93.50;;;;;;5029266;28;20025;-63
2022/09/02 09:13:52;;;;;;;5.15;1.80;;;24.00;92.90;;;;;;5028532;28;20116;-64
2022/09/02 09:16:24;;;;;;;7.45;1.80;;;23.60;92.60;;;;;;5033271;28;20021;-64
2022/09/02 09:19:09;;;;;;;9.60;2.17;;;23.80;92.60;;;;;;5030351;28;20040;-64
2022/09/02 09:21:35;;;;;;;6.70;1.95;;;24.20;91.70;;;;;;5034767;28;20459;-64
2022/09/02 09:24:12;;;;;;;8.30;2.00;;;24.50;91.40;;;;;;5033746;28;20150;-63
2022/09/02 09:26:40;;;;;;;11.48;2.17;;;24.60;90.90;;;;;;5029059;28;20026;-64
2022/09/02 09:29:05;;;;;;;7.68;1.90;;;24.60;90.30;;;;;;5033261;28;20049;-64
2022/09/02 09:31:34;;;;;;;6.97;2.03;;;25.20;90.10;;;;;;5030662;28;20080;-64
2022/09/02 09:34:01;;;;;;;8.27;2.00;;;25.10;90.10;;;;;;5034711;28;20056;-64
2022/09/02 09:36:47;;;;;;;6.82;2.33;;;25.30;89.50;;;;;;5038510;28;20284;-64
2022/09/02 09:39:30;;;;;;;7.10;1.90;;;25.20;88.40;;;;;;5028497;28;20024;-64
2022/09/02 09:42:02;;;;;;;5.38;1.52;;;25.50;88.30;;;;;;5029708;28;21152;-64
2022/09/02 09:44:28;;;;;;;8.75;1.90;;;25.60;89.90;;;;;;5032506;28;20037;-64
2022/09/02 09:47:01;;;;;;;5.50;1.77;;;25.90;87.00;;;;;;5027998;28;20059;-64
2022/09/02 09:49:32;;;;;;;7.28;1.92;;;26.10;86.50;;;;;;5030576;28;20021;-64
2022/09/02 09:51:58;;;;;;;7.78;2.05;;;26.30;86.00;;;;;;5033897;28;20253;-64
2022/09/02 09:54:26;;;;;;;7.35;1.80;;;26.30;85.10;;;;;;5032568;28;20110;-64
2022/09/02 09:56:53;;;;;;;8.95;1.90;;;26.10;85.90;;;;;;5027956;28;20476;-64
2022/09/02 09:59:41;;;;;;;6.18;2.00;;;25.80;84.80;;;;;;5032584;28;20151;-64
2022/09/02 10:02:19;;;;;;;6.40;1.90;;;25.80;84.60;;;;;;5030021;28;20021;-64
2022/09/02 10:04:45;;;;;;;8.23;1.92;;;26.00;85.30;;;;;;5034746;28;20531;-64
2022/09/02 10:07:14;;;;;;;8.55;2.00;;;26.40;83.70;;;;;;5034777;28;20096;-64
2022/09/02 10:09:40;;;;;;;5.63;1.90;;;26.60;82.90;;;;;;5030532;28;20036;-64
2022/09/02 10:12:11;;;;;;;8.98;2.03;;;27.00;82.30;;;;;;5034128;28;20287;-64
2022/09/02 10:14:46;;;;;;;5.75;2.10;;;27.80;80.40;;;;;;5032507;28;20026;-64
2022/09/02 10:18:00;;;;;;;6.07;2.10;;;28.00;80.30;;;;;;5033380;28;21495;-65
2022/09/02 10:20:50;;;;;;;5.63;1.90;;;28.00;79.10;;;;;;5058453;28;20049;-64
2022/09/02 10:23:50;;;;;;;5.45;1.70;;;29.00;76.10;;;;;;5054277;28;20156;-63
2022/09/02 10:26:21;;;;;;;6.88;1.95;;;29.60;74.90;;;;;;5055130;28;20041;-64
2022/09/02 10:29:24;;;;;;;8.65;2.03;;;29.80;72.90;;;;;;5059217;28;20111;-64
2022/09/02 10:32:28;;;;;;;6.38;1.70;;;29.50;73.60;;;;;;5053719;28;20047;-64
2022/09/02 10:35:09;;;;;;;5.22;1.90;;;28.60;75.10;;;;;;5043057;28;20036;-64
2022/09/02 10:38:13;;;;;;;5.07;1.77;;;28.00;73.70;;;;;;5040153;28;20049;-65
2022/09/02 10:40:44;;;;;;;5.85;1.92;;;27.30;73.70;;;;;;5055551;28;20052;-65
2022/09/02 10:43:32;;;;;;;5.70;1.83;;;26.50;74.00;;;;;;5046572;28;20029;-64
2022/09/02 10:46:00;;;;;;;4.47;1.70;;;26.00;74.60;;;;;;5056151;28;20066;-64
2022/09/02 10:48:49;;;;;;;6.38;1.88;;;25.80;75.80;;;;;;5059778;28;20604;-64
2022/09/02 10:51:44;;;;;;;6.63;1.70;;;25.50;76.90;;;;;;5046415;28;20033;-64
2022/09/02 10:54:48;;;;;;;6.40;1.83;;;25.80;77.10;;;;;;5026458;28;20037;-64
2022/09/02 10:57:30;;;;;;;4.82;1.75;;;25.80;74.70;;;;;;5037841;28;20464;-64
2022/09/02 11:00:08;;;;;;;6.07;1.83;;;26.10;74.00;;;;;;5046362;28;20029;-64
2022/09/02 11:03:03;;;;;;;4.53;1.80;;;26.50;72.70;;;;;;5041748;28;20036;-64
2022/09/02 11:05:50;;;;;;;4.70;1.70;;;27.00;72.10;;;;;;5041877;28;20056;-64
2022/09/02 11:08:50;;;;;;;9.55;1.80;;;27.20;69.40;;;;;;5042336;28;20030;-64
2022/09/02 11:11:23;;;;;;;5.95;1.67;;;27.70;67.90;;;;;;5039040;28;20418;-64
2022/09/02 11:14:01;;;;;;;4.50;1.60;;;27.80;66.90;;;;;;5042279;28;20142;-64
2022/09/02 11:16:41;;;;;;;6.18;1.70;;;27.10;67.30;;;;;;5045223;28;20656;-64
2022/09/02 11:19:20;;;;;;;4.63;1.80;;;26.70;66.80;;;;;;5044232;28;20036;-64
2022/09/02 11:21:48;;;;;;;5.82;1.83;;;27.10;66.80;;;;;;5039851;28;20057;-64
2022/09/02 11:24:37;;;;;;;6.88;1.70;;;27.30;67.10;;;;;;5033518;28;20045;-64
2022/09/02 11:27:35;;;;;;;6.65;1.67;;;27.70;63.60;;;;;;5039047;28;20025;-64
2022/09/02 11:30:11;;;;;;;5.47;1.70;;;28.10;65.00;;;;;;5035322;28;20032;-64
2022/09/02 11:32:49;;;;;;;4.35;1.50;;;31.30;63.60;;;;;;5031782;28;20029;-64
2022/09/02 11:35:26;;;;;;;5.30;1.75;;;33.30;61.40;;;;;;5039834;28;20025;-64
2022/09/02 11:38:41;;;;;;;3.97;1.52;;;33.70;59.00;;;;;;5045560;28;20025;-64
2022/09/02 11:41:16;;;;;;;3.47;1.48;;;33.30;58.60;;;;;;5037345;28;20056;-64
2022/09/02 11:43:59;;;;;;;3.70;1.40;;;33.00;57.50;;;;;;5049356;28;20097;-65
2022/09/02 11:46:53;;;;;;;2.85;1.30;;;33.00;57.30;;;;;;5043141;28;20124;-65
2022/09/02 11:50:01;;;;;;;6.22;1.55;;;32.50;56.90;;;;;;5045271;28;20134;-64
2022/09/02 11:52:49;;;;;;;8.35;1.48;;;33.50;57.60;;;;;;5062557;28;20148;-64
2022/09/02 11:55:20;;;;;;;5.63;1.50;;;32.10;56.70;;;;;;5045546;28;20415;-64
2022/09/02 11:57:56;;;;;;;6.13;1.77;;;32.30;55.80;;;;;;5037490;28;20029;-64
2022/09/02 12:00:31;;;;;;;7.70;1.70;;;31.10;57.30;;;;;;5042132;28;20579;-64
2022/09/02 12:03:05;;;;;;;4.60;1.65;;;29.90;57.70;;;;;;5038350;28;20043;-64
2022/09/02 12:05:31;;;;;;;5.43;1.42;;;29.30;58.90;;;;;;5034702;28;20037;-64
2022/09/02 12:08:08;;;;;;;5.05;1.60;;;29.00;60.10;;;;;;5037112;28;20024;-64
2022/09/02 12:10:42;;;;;;;4.35;1.60;;;29.20;59.10;;;;;;5030555;28;20393;-64
2022/09/02 12:13:31;;;;;;;4.63;1.50;;;29.10;60.30;;;;;;5040689;28;20055;-64
2022/09/02 12:16:13;;;;;;;3.83;1.43;;;29.40;59.50;;;;;;5034362;28;20033;-64
2022/09/02 12:18:42;;;;;;;4.38;1.63;;;29.50;59.00;;;;;;5034339;28;20136;-64
2022/09/02 12:21:13;;;;;;;3.95;1.55;;;29.20;59.00;;;;;;5039215;28;20619;-64
2022/09/02 12:23:48;;;;;;;4.35;1.58;;;28.80;60.10;;;;;;5030822;28;20063;-64
2022/09/02 12:26:16;;;;;;;4.43;1.50;;;30.60;60.10;;;;;;5044715;28;20055;-65
2022/09/02 12:28:45;;;;;;;7.00;1.88;;;30.70;59.00;;;;;;5035594;28;20631;-65
2022/09/02 12:31:14;;;;;;;7.40;1.77;;;30.10;58.90;;;;;;5037861;28;20028;-64
2022/09/02 12:33:43;;;;;;;5.72;1.80;;;28.50;59.60;;;;;;5042228;28;20034;-64
2022/09/02 12:36:29;;;;;;;4.20;1.63;;;28.10;59.90;;;;;;5036587;28;20516;-64
2022/09/02 12:39:14;;;;;;;9.48;1.70;;;28.00;60.90;;;;;;5040145;28;20295;-64
2022/09/02 12:41:43;;;;;;;3.95;1.50;;;28.00;61.00;;;;;;5040006;28;20032;-64
2022/09/02 12:44:50;;;;;;;7.47;1.80;;;28.20;61.10;;;;;;5044953;28;20116;-64
2022/09/02 12:47:25;;;;;;;4.30;1.73;;;27.80;60.80;;;;;;5042847;28;20373;-64
2022/09/02 12:50:02;;;;;;;5.63;1.88;;;27.10;61.50;;;;;;5041855;28;20518;-64
2022/09/02 12:52:39;;;;;;;5.05;1.70;;;27.00;61.50;;;;;;5032660;28;20041;-64
2022/09/02 12:55:08;;;;;;;6.13;1.80;;;27.10;62.80;;;;;;5031804;28;20473;-64
2022/09/02 12:57:39;;;;;;;4.88;1.58;;;27.60;62.70;;;;;;5044070;28;20403;-64
2022/09/02 13:00:06;;;;;;;6.00;1.70;;;27.50;61.50;;;;;;5047179;28;20090;-64
2022/09/02 13:03:08;;;;;;;3.88;1.65;;;27.70;61.50;;;;;;5041048;28;20032;-64
2022/09/02 13:06:02;;;;;;;5.43;1.77;;;27.20;62.70;;;;;;5035883;28;20060;-65
2022/09/02 13:08:59;;;;;;;4.13;1.70;;;26.60;61.50;;;;;;5029677;28;20033;-64
2022/09/02 13:11:48;;;;;;;3.78;1.73;;;26.10;63.40;;;;;;5040858;28;20079;-64